createdAt,value
2019-03-03T00:01:44.781Z,3.80
2019-03-03T00:04:14.280Z,4.17
2019-03-03T00:06:44.142Z,4.77
2019-03-03T00:09:14.012Z,4.20
2019-03-03T00:11:43.482Z,4.37
2019-03-03T00:14:12.992Z,3.77
2019-03-03T00:16:42.818Z,4.00
2019-03-03T00:19:12.324Z,3.37
2019-03-03T00:21:41.858Z,4.33
2019-03-03T00:24:11.599Z,3.57
2019-03-03T00:26:41.099Z,4.97
2019-03-03T00:29:10.560Z,3.67
2019-03-03T00:31:41.726Z,3.23
2019-03-03T00:34:11.685Z,3.30
2019-03-03T00:36:58.742Z,3.57
2019-03-03T00:39:53.416Z,4.40
2019-03-03T00:42:37.250Z,4.73
2019-03-03T00:45:13.457Z,4.97
2019-03-03T00:48:02.308Z,5.07
2019-03-03T00:50:47.741Z,4.53
2019-03-03T00:53:35.846Z,4.80
2019-03-03T00:56:21.122Z,6.10
2019-03-03T00:59:15.414Z,6.37
2019-03-03T01:02:06.725Z,5.70
2019-03-03T01:05:04.647Z,4.77
2019-03-03T01:07:51.870Z,4.80
2019-03-03T01:10:40.287Z,4.70
2019-03-03T01:13:22.761Z,5.03
2019-03-03T01:16:23.222Z,4.47
2019-03-03T01:19:01.002Z,4.73
2019-03-03T01:21:55.378Z,5.10
2019-03-03T01:24:43.851Z,6.17
2019-03-03T01:27:13.342Z,5.60
2019-03-03T01:29:43.207Z,4.17
2019-03-03T01:32:12.660Z,4.77
2019-03-03T01:34:42.162Z,4.77
2019-03-03T01:37:11.609Z,4.77
2019-03-03T01:39:41.026Z,4.70
2019-03-03T01:42:10.472Z,4.80
2019-03-03T01:44:40.256Z,4.67
2019-03-03T01:47:09.902Z,4.03
2019-03-03T01:49:39.334Z,4.70
2019-03-03T01:52:08.738Z,4.40
2019-03-03T01:54:38.666Z,4.70
2019-03-03T01:57:08.166Z,4.80
2019-03-03T01:59:37.979Z,4.57
2019-03-03T02:02:07.510Z,3.50
2019-03-03T02:04:36.923Z,3.63
2019-03-03T02:07:06.686Z,3.87
2019-03-03T02:09:36.219Z,4.27
2019-03-03T02:12:05.674Z,3.57
2019-03-03T02:14:35.145Z,4.47
2019-03-03T02:17:06.080Z,4.58
2019-03-03T02:19:35.592Z,4.00
2019-03-03T02:22:05.786Z,4.77
2019-03-03T02:24:35.682Z,3.60
2019-03-03T02:27:05.140Z,3.93
2019-03-03T02:29:34.650Z,3.23
2019-03-03T02:32:05.519Z,3.53
2019-03-03T02:34:34.957Z,3.53
2019-03-03T02:37:04.409Z,3.30
2019-03-03T02:39:33.870Z,2.90
2019-03-03T02:42:03.349Z,3.13
2019-03-03T02:44:33.189Z,3.37
2019-03-03T02:47:03.312Z,3.30
2019-03-03T02:49:32.807Z,3.47
2019-03-03T02:52:02.246Z,3.45
2019-03-03T02:54:32.020Z,3.60
2019-03-03T02:57:01.464Z,4.50
2019-03-03T02:59:30.902Z,3.40
2019-03-03T03:02:03.494Z,3.40
2019-03-03T03:04:33.068Z,3.83
2019-03-03T03:07:14.834Z,3.83
2019-03-03T03:10:12.530Z,3.07
2019-03-03T03:12:55.749Z,3.87
2019-03-03T03:15:49.029Z,3.27
2019-03-03T03:18:36.363Z,3.13
2019-03-03T03:21:31.853Z,3.10
2019-03-03T03:24:38.395Z,3.57
2019-03-03T03:27:25.273Z,3.30
2019-03-03T03:30:11.957Z,3.23
2019-03-03T03:32:46.310Z,3.00
2019-03-03T03:35:37.967Z,3.80
2019-03-03T03:38:21.500Z,4.28
2019-03-03T03:41:09.989Z,3.20
2019-03-03T03:43:58.607Z,3.80
2019-03-03T03:46:40.495Z,3.17
2019-03-03T03:49:37.743Z,2.87
2019-03-03T03:52:22.746Z,3.80
2019-03-03T03:55:17.001Z,3.23
2019-03-03T03:57:54.547Z,3.90
2019-03-03T04:00:31.078Z,3.90
2019-03-03T04:03:08.044Z,3.53
2019-03-03T04:05:56.279Z,3.70
2019-03-03T04:08:36.920Z,4.60
2019-03-03T04:11:23.912Z,4.23
2019-03-03T04:14:15.398Z,4.30
2019-03-03T04:17:22.319Z,5.07
2019-03-03T04:19:59.011Z,4.50
2019-03-03T04:22:39.171Z,4.40
2019-03-03T04:25:19.559Z,4.10
2019-03-03T04:28:05.873Z,4.90
2019-03-03T04:30:43.931Z,5.27
2019-03-03T04:33:29.718Z,4.90
2019-03-03T04:36:27.080Z,5.10
2019-03-03T04:39:14.633Z,4.60
2019-03-03T04:41:55.824Z,6.53
2019-03-03T04:44:42.867Z,5.60
2019-03-03T04:47:23.934Z,6.20
2019-03-03T04:50:10.679Z,5.17
2019-03-03T04:52:46.196Z,5.53
2019-03-03T04:55:33.482Z,5.50
2019-03-03T04:58:20.779Z,5.70
2019-03-03T05:01:12.194Z,5.20
2019-03-03T05:04:00.654Z,5.58
2019-03-03T05:06:42.100Z,5.50
2019-03-03T05:09:20.893Z,7.30
2019-03-03T05:12:33.175Z,6.20
2019-03-03T05:15:26.806Z,7.30
2019-03-03T05:18:04.970Z,6.53
2019-03-03T05:20:48.559Z,7.03
2019-03-03T05:23:18.050Z,6.17
2019-03-03T05:25:47.488Z,6.47
2019-03-03T05:28:16.942Z,6.60
2019-03-03T05:30:46.758Z,6.37
2019-03-03T05:33:16.964Z,6.33
2019-03-03T05:35:46.720Z,6.60
2019-03-03T05:38:16.506Z,6.70
2019-03-03T05:40:45.972Z,7.43
2019-03-03T05:43:15.535Z,7.20
2019-03-03T05:45:44.999Z,7.10
2019-03-03T05:48:14.538Z,8.15
2019-03-03T05:50:44.170Z,8.63
2019-03-03T05:53:13.602Z,9.03
2019-03-03T05:55:43.802Z,8.90
2019-03-03T05:58:13.338Z,8.40
2019-03-03T06:00:42.764Z,10.13
2019-03-03T06:03:12.292Z,9.27
2019-03-03T06:05:41.752Z,10.33
2019-03-03T06:08:11.379Z,10.40
2019-03-03T06:10:41.070Z,10.90
2019-03-03T06:13:10.535Z,10.67
2019-03-03T06:15:40.527Z,10.77
2019-03-03T06:18:10.245Z,10.57
2019-03-03T06:20:39.694Z,11.63
2019-03-03T06:23:09.354Z,10.13
2019-03-03T06:25:38.870Z,11.10
2019-03-03T06:28:08.370Z,10.80
2019-03-03T06:30:37.835Z,11.37
2019-03-03T06:33:07.243Z,12.10
2019-03-03T06:35:37.062Z,10.27
2019-03-03T06:38:06.519Z,12.00
2019-03-03T06:40:36.075Z,10.40
2019-03-03T06:43:05.578Z,10.13
2019-03-03T06:45:35.040Z,10.70
2019-03-03T06:48:04.535Z,11.03
2019-03-03T06:50:34.014Z,11.70
2019-03-03T06:53:03.846Z,11.40
2019-03-03T06:55:33.371Z,11.07
2019-03-03T06:58:03.265Z,11.23
2019-03-03T07:00:32.767Z,10.37
2019-03-03T07:03:05.150Z,10.93
2019-03-03T07:05:34.589Z,10.37
2019-03-03T07:08:04.036Z,10.13
2019-03-03T07:10:33.886Z,10.93
2019-03-03T07:13:03.370Z,10.60
2019-03-03T07:15:33.186Z,11.10
2019-03-03T07:18:02.701Z,11.80
2019-03-03T07:20:32.172Z,12.67
2019-03-03T07:23:03.838Z,11.23
2019-03-03T07:25:33.444Z,11.07
2019-03-03T07:28:02.924Z,11.07
2019-03-03T07:30:32.354Z,11.30
2019-03-03T07:33:15.851Z,10.47
2019-03-03T07:35:45.348Z,10.40
2019-03-03T07:38:14.901Z,11.40
2019-03-03T07:40:44.811Z,11.57
2019-03-03T07:43:14.248Z,12.10
2019-03-03T07:45:43.744Z,11.80
2019-03-03T07:48:13.241Z,11.07
2019-03-03T07:50:42.707Z,11.77
2019-03-03T07:53:12.162Z,10.87
2019-03-03T07:55:41.662Z,11.00
2019-03-03T07:58:11.448Z,11.00
2019-03-03T08:00:40.914Z,9.97
2019-03-03T08:03:10.378Z,10.70
2019-03-03T08:05:39.806Z,10.93
2019-03-03T08:08:09.289Z,10.30
2019-03-03T08:10:39.058Z,12.73
2019-03-03T08:13:09.546Z,11.13
2019-03-03T08:15:39.254Z,9.53
2019-03-03T08:18:09.123Z,10.27
2019-03-03T08:20:38.631Z,10.50
2019-03-03T08:23:08.186Z,10.37
2019-03-03T08:25:37.659Z,9.60
2019-03-03T08:28:07.157Z,10.53
2019-03-03T08:30:36.664Z,11.80
2019-03-03T08:33:06.469Z,9.23
2019-03-03T08:35:36.784Z,10.97
2019-03-03T08:38:06.621Z,11.33
2019-03-03T08:40:36.419Z,11.60
2019-03-03T08:43:10.888Z,10.87
2019-03-03T08:46:06.068Z,11.13
2019-03-03T08:49:06.590Z,11.10
2019-03-03T08:51:58.463Z,10.10
2019-03-03T08:54:39.065Z,11.17
2019-03-03T08:57:33.831Z,11.80
2019-03-03T09:00:21.294Z,11.30
2019-03-03T09:02:59.998Z,11.00
2019-03-03T09:05:49.042Z,11.03
2019-03-03T09:08:37.946Z,11.30
2019-03-03T09:11:16.647Z,9.83
2019-03-03T09:13:51.410Z,9.27
2019-03-03T09:16:42.806Z,9.20
2019-03-03T09:19:37.802Z,10.25
2019-03-03T09:22:19.681Z,10.30
2019-03-03T09:25:07.009Z,8.50
2019-03-03T09:28:04.688Z,10.30
2019-03-03T09:31:11.856Z,9.37
2019-03-03T09:34:00.336Z,8.77
2019-03-03T09:36:51.041Z,9.60
2019-03-03T09:39:54.531Z,9.63
2019-03-03T09:42:42.914Z,9.10
2019-03-03T09:45:40.638Z,7.90
2019-03-03T09:48:36.191Z,8.70
2019-03-03T09:51:27.618Z,7.50
2019-03-03T09:54:12.438Z,6.63
2019-03-03T09:57:00.830Z,6.60
2019-03-03T09:59:48.174Z,7.03
2019-03-03T10:02:36.994Z,6.40
2019-03-03T10:05:32.674Z,6.10
2019-03-03T10:08:26.960Z,7.73
2019-03-03T10:11:07.747Z,6.70
2019-03-03T10:13:48.322Z,6.40
2019-03-03T10:16:35.846Z,6.60
2019-03-03T10:19:12.895Z,6.57
2019-03-03T10:22:16.400Z,7.07
2019-03-03T10:25:09.618Z,6.40
2019-03-03T10:27:52.384Z,7.00
2019-03-03T10:30:40.074Z,7.30
2019-03-03T10:33:28.922Z,5.80
2019-03-03T10:36:23.300Z,6.50
2019-03-03T10:39:26.884Z,5.77
2019-03-03T10:42:14.565Z,5.73
2019-03-03T10:45:13.378Z,7.40
2019-03-03T10:48:22.133Z,6.27
2019-03-03T10:51:12.135Z,6.30
2019-03-03T10:54:10.799Z,6.27
2019-03-03T10:56:55.840Z,6.83
2019-03-03T10:59:36.869Z,5.90
2019-03-03T11:02:24.816Z,5.80
2019-03-03T11:05:22.752Z,6.47
2019-03-03T11:08:10.332Z,6.80
2019-03-03T11:10:57.357Z,5.63
2019-03-03T11:13:29.034Z,5.80
2019-03-03T11:16:23.531Z,6.67
2019-03-03T11:19:00.186Z,6.00
2019-03-03T11:22:03.686Z,7.10
2019-03-03T11:24:51.652Z,6.80
2019-03-03T11:27:42.855Z,5.80
2019-03-03T11:30:39.518Z,6.83
2019-03-03T11:33:19.199Z,5.73
2019-03-03T11:36:07.724Z,5.40
2019-03-03T11:38:56.070Z,5.50
2019-03-03T11:41:30.362Z,5.47
2019-03-03T11:44:21.560Z,7.30
2019-03-03T11:47:09.977Z,6.33
2019-03-03T11:49:57.877Z,5.30
2019-03-03T11:53:01.867Z,5.37
2019-03-03T11:55:40.413Z,5.60
2019-03-03T11:58:38.150Z,5.63
2019-03-03T12:01:26.814Z,5.67
2019-03-03T12:04:08.884Z,5.83
2019-03-03T12:07:00.101Z,5.27
2019-03-03T12:09:54.694Z,5.23
2019-03-03T12:12:55.535Z,4.60
2019-03-03T12:15:31.097Z,4.80
2019-03-03T12:18:29.908Z,5.80
2019-03-03T12:21:05.762Z,4.70
2019-03-03T12:24:00.296Z,5.20
2019-03-03T12:26:47.490Z,4.80
2019-03-03T12:29:38.616Z,4.93
2019-03-03T12:32:27.022Z,5.40
2019-03-03T12:35:27.653Z,5.73
2019-03-03T12:38:25.815Z,6.83
2019-03-03T12:41:06.424Z,5.30
2019-03-03T12:44:00.701Z,6.00
2019-03-03T12:46:48.279Z,5.37
2019-03-03T12:49:37.070Z,7.37
2019-03-03T12:52:34.549Z,7.20
2019-03-03T12:55:20.784Z,5.47
2019-03-03T12:58:05.661Z,4.87
2019-03-03T13:01:03.111Z,6.50
2019-03-03T13:03:47.786Z,4.77
2019-03-03T13:06:33.268Z,5.30
2019-03-03T13:09:22.098Z,5.43
2019-03-03T13:12:19.589Z,5.67
2019-03-03T13:15:07.981Z,5.63
2019-03-03T13:17:49.998Z,5.87
2019-03-03T13:20:41.758Z,5.70
2019-03-03T13:23:17.623Z,5.10
2019-03-03T13:26:12.671Z,5.20
2019-03-03T13:28:49.165Z,6.53
2019-03-03T13:31:36.180Z,5.17
2019-03-03T13:34:13.849Z,5.47
2019-03-03T13:37:11.608Z,4.50
2019-03-03T13:39:53.239Z,5.10
2019-03-03T13:42:44.873Z,5.10
2019-03-03T13:45:15.123Z,5.07
2019-03-03T13:47:44.918Z,4.93
2019-03-03T13:50:15.751Z,5.23
2019-03-03T13:52:45.614Z,5.50
2019-03-03T13:55:16.051Z,5.50
2019-03-03T13:57:45.897Z,5.10
2019-03-03T14:00:19.589Z,5.07
2019-03-03T14:02:49.400Z,6.07
2019-03-03T14:05:20.453Z,6.17
2019-03-03T14:07:50.508Z,5.20
2019-03-03T14:10:19.938Z,4.50
2019-03-03T14:12:49.646Z,5.60
2019-03-03T14:15:19.642Z,5.50
2019-03-03T14:17:49.331Z,5.80
2019-03-03T14:20:23.015Z,6.47
2019-03-03T14:22:53.744Z,5.67
2019-03-03T14:25:23.669Z,5.07
2019-03-03T14:27:53.435Z,4.87
2019-03-03T14:30:24.464Z,5.43
2019-03-03T14:32:54.317Z,4.90
2019-03-03T14:35:24.145Z,5.77
2019-03-03T14:37:53.698Z,5.63
2019-03-03T14:40:23.342Z,6.00
2019-03-03T14:42:52.908Z,6.70
2019-03-03T14:45:22.819Z,5.67
2019-03-03T14:47:52.274Z,5.20
2019-03-03T14:50:23.452Z,5.60
2019-03-03T14:52:53.015Z,6.07
2019-03-03T14:55:22.758Z,7.27
2019-03-03T14:57:52.244Z,5.40
2019-03-03T15:00:25.982Z,5.93
2019-03-03T15:02:55.977Z,6.00
2019-03-03T15:05:26.587Z,6.20
2019-03-03T15:07:56.139Z,6.60
2019-03-03T15:10:25.633Z,6.50
2019-03-03T15:12:55.213Z,6.60
2019-03-03T15:15:25.107Z,7.20
2019-03-03T15:17:54.926Z,7.43
2019-03-03T15:20:24.922Z,7.40
2019-03-03T15:22:54.623Z,8.60
2019-03-03T15:25:24.714Z,7.70
2019-03-03T15:27:54.402Z,8.50
2019-03-03T15:30:24.115Z,8.57
2019-03-03T15:32:53.960Z,8.10
2019-03-03T15:35:23.619Z,9.30
2019-03-03T15:37:53.092Z,8.50
2019-03-03T15:40:22.596Z,8.30
2019-03-03T15:42:52.187Z,10.07
2019-03-03T15:45:22.346Z,9.80
2019-03-03T15:47:52.185Z,9.87
2019-03-03T15:50:21.658Z,10.17
2019-03-03T15:52:51.262Z,10.23
2019-03-03T15:55:21.109Z,8.33
2019-03-03T15:57:50.538Z,8.53
2019-03-03T16:00:22.373Z,9.67
2019-03-03T16:02:51.954Z,8.20
2019-03-03T16:05:22.175Z,8.83
2019-03-03T16:07:51.962Z,8.57
2019-03-03T16:10:21.762Z,8.97
2019-03-03T16:12:51.266Z,9.10
2019-03-03T16:15:21.091Z,8.93
2019-03-03T16:17:50.592Z,10.07
2019-03-03T16:20:20.426Z,9.93
2019-03-03T16:22:49.935Z,10.23
2019-03-03T16:25:20.561Z,9.20
2019-03-03T16:27:50.043Z,9.83
2019-03-03T16:30:20.063Z,8.77
2019-03-03T16:32:49.658Z,9.03
2019-03-03T16:35:19.320Z,10.67
2019-03-03T16:37:48.820Z,8.33
2019-03-03T16:40:19.925Z,9.27
2019-03-03T16:42:49.452Z,9.37
2019-03-03T16:45:19.657Z,10.27
2019-03-03T16:47:49.230Z,9.13
2019-03-03T16:50:19.210Z,8.27
2019-03-03T16:52:49.355Z,8.50
2019-03-03T16:55:19.246Z,10.70
2019-03-03T16:57:49.210Z,7.97
2019-03-03T17:00:19.970Z,10.47
2019-03-03T17:02:49.497Z,8.20
2019-03-03T17:05:19.711Z,7.60
2019-03-03T17:07:50.418Z,9.80
2019-03-03T17:10:20.258Z,8.20
2019-03-03T17:12:50.194Z,9.77
2019-03-03T17:15:21.063Z,8.30
2019-03-03T17:17:50.850Z,8.10
2019-03-03T17:20:20.667Z,6.90
2019-03-03T17:22:50.089Z,7.47
2019-03-03T17:25:21.427Z,7.30
2019-03-03T17:27:51.338Z,8.37
2019-03-03T17:30:21.814Z,8.17
2019-03-03T17:32:51.286Z,7.13
2019-03-03T17:35:20.870Z,7.73
2019-03-03T17:37:50.345Z,7.33
2019-03-03T17:40:20.524Z,7.33
2019-03-03T17:42:50.526Z,7.33
2019-03-03T17:45:20.854Z,8.93
2019-03-03T17:47:51.178Z,6.63
2019-03-03T17:50:21.610Z,6.10
2019-03-03T17:52:51.082Z,6.80
2019-03-03T17:55:21.049Z,6.07
2019-03-03T17:57:50.782Z,5.80
2019-03-03T18:00:22.537Z,6.23
2019-03-03T18:02:52.132Z,6.13
2019-03-03T18:05:22.068Z,5.40
2019-03-03T18:07:51.621Z,6.00
2019-03-03T18:10:21.948Z,6.83
2019-03-03T18:12:51.402Z,6.60
2019-03-03T18:15:21.160Z,6.50
2019-03-03T18:17:50.775Z,5.60
2019-03-03T18:20:20.227Z,6.20
2019-03-03T18:22:50.311Z,5.50
2019-03-03T18:25:19.914Z,7.77
2019-03-03T18:27:49.404Z,9.43
2019-03-03T18:30:22.644Z,8.33
2019-03-03T18:32:52.229Z,6.90
2019-03-03T18:35:21.649Z,7.63
2019-03-03T18:37:51.132Z,5.77
2019-03-03T18:40:21.238Z,6.00
2019-03-03T18:42:51.202Z,6.27
2019-03-03T18:45:20.614Z,5.57
2019-03-03T18:47:50.101Z,5.60
2019-03-03T18:50:20.059Z,5.93
2019-03-03T18:52:49.838Z,5.90
2019-03-03T18:55:19.619Z,5.50
2019-03-03T18:57:49.072Z,6.20
2019-03-03T19:00:22.548Z,6.47
2019-03-03T19:02:52.191Z,5.67
2019-03-03T19:05:21.818Z,5.67
2019-03-03T19:07:51.684Z,7.30
2019-03-03T19:10:21.711Z,6.10
2019-03-03T19:12:51.191Z,5.80
2019-03-03T19:15:21.150Z,6.60
2019-03-03T19:17:50.914Z,6.23
2019-03-03T19:20:21.148Z,6.30
2019-03-03T19:22:52.145Z,6.13
2019-03-03T19:25:21.681Z,5.93
2019-03-03T19:27:51.794Z,5.97
2019-03-03T19:30:22.895Z,5.13
2019-03-03T19:33:08.967Z,5.63
2019-03-03T19:35:38.748Z,6.20
2019-03-03T19:38:08.187Z,5.50
2019-03-03T19:40:38.494Z,5.77
2019-03-03T19:43:08.036Z,5.97
2019-03-03T19:45:37.514Z,5.60
2019-03-03T19:48:07.666Z,6.10
2019-03-03T19:50:37.926Z,5.67
2019-03-03T19:53:07.922Z,5.00
2019-03-03T19:55:37.362Z,5.80
2019-03-03T19:58:06.984Z,5.03
2019-03-03T20:00:38.858Z,5.60
2019-03-03T20:03:08.331Z,4.90
2019-03-03T20:05:38.111Z,4.67
2019-03-03T20:08:07.665Z,5.70
2019-03-03T20:10:37.257Z,5.10
2019-03-03T20:13:07.564Z,5.20
2019-03-03T20:15:37.671Z,5.83
2019-03-03T20:18:08.315Z,5.10
2019-03-03T20:20:37.876Z,5.53
2019-03-03T20:23:07.976Z,4.97
2019-03-03T20:25:37.547Z,4.97
2019-03-03T20:28:07.827Z,5.93
2019-03-03T20:30:37.782Z,5.67
2019-03-03T20:33:08.018Z,5.03
2019-03-03T20:35:37.480Z,5.27
2019-03-03T20:38:06.940Z,4.93
2019-03-03T20:40:36.389Z,5.63
2019-03-03T20:43:05.802Z,4.63
2019-03-03T20:45:36.148Z,5.37
2019-03-03T20:48:06.006Z,5.10
2019-03-03T20:50:35.981Z,5.40
2019-03-03T20:53:05.582Z,5.10
2019-03-03T20:55:35.195Z,5.37
2019-03-03T20:58:04.754Z,6.70
2019-03-03T21:00:34.350Z,5.13
2019-03-03T21:03:03.795Z,5.40
2019-03-03T21:05:33.248Z,5.28
2019-03-03T21:08:02.712Z,5.23
2019-03-03T21:10:32.274Z,4.50
2019-03-03T21:13:02.122Z,4.90
2019-03-03T21:15:31.630Z,5.30
2019-03-03T21:18:01.138Z,4.70
2019-03-03T21:20:30.688Z,5.20
2019-03-03T21:23:00.181Z,5.47
2019-03-03T21:25:29.614Z,5.63
2019-03-03T21:27:59.258Z,5.57
2019-03-03T21:30:28.681Z,5.57
2019-03-03T21:32:58.480Z,5.20
2019-03-03T21:35:28.077Z,5.33
2019-03-03T21:37:59.001Z,4.77
2019-03-03T21:40:28.562Z,5.83
2019-03-03T21:43:01.566Z,5.87
2019-03-03T21:45:31.035Z,7.60
2019-03-03T21:48:00.490Z,5.97
2019-03-03T21:50:30.058Z,5.30
2019-03-03T21:52:59.540Z,4.80
2019-03-03T21:55:29.004Z,5.57
2019-03-03T21:57:58.411Z,5.37
2019-03-03T22:00:32.671Z,5.00
2019-03-03T22:03:02.122Z,5.50
2019-03-03T22:05:31.590Z,5.50
2019-03-03T22:08:01.410Z,5.40
2019-03-03T22:10:31.815Z,5.03
2019-03-03T22:13:03.296Z,4.90
2019-03-03T22:15:32.818Z,5.60
2019-03-03T22:18:02.225Z,5.50
2019-03-03T22:20:32.087Z,4.90
2019-03-03T22:23:01.825Z,5.70
2019-03-03T22:25:31.447Z,5.50
2019-03-03T22:28:00.954Z,5.07
2019-03-03T22:30:31.150Z,5.20
2019-03-03T22:33:00.719Z,5.00
2019-03-03T22:35:30.272Z,5.00
2019-03-03T22:38:00.183Z,5.50
2019-03-03T22:40:29.621Z,5.67
2019-03-03T22:42:59.369Z,5.40
2019-03-03T22:45:28.838Z,5.47
2019-03-03T22:47:58.339Z,4.77
2019-03-03T22:50:27.749Z,5.00
2019-03-03T22:52:57.432Z,5.10
2019-03-03T22:55:27.296Z,5.65
2019-03-03T22:57:56.947Z,4.90
2019-03-03T23:00:51.749Z,4.90
2019-03-03T23:04:00.852Z,4.73
2019-03-03T23:06:46.829Z,5.03
2019-03-03T23:09:58.808Z,4.90
2019-03-03T23:12:51.230Z,4.87
2019-03-03T23:15:38.452Z,4.67
2019-03-03T23:18:34.211Z,5.03
2019-03-03T23:21:33.267Z,5.50
2019-03-03T23:24:42.781Z,4.37
2019-03-03T23:27:12.422Z,4.67
2019-03-03T23:29:42.281Z,4.83
2019-03-03T23:32:12.166Z,4.40
2019-03-03T23:34:42.007Z,3.90
2019-03-03T23:37:11.438Z,4.30
2019-03-03T23:39:40.860Z,4.10
2019-03-03T23:42:10.334Z,4.43
2019-03-03T23:44:39.856Z,4.90
2019-03-03T23:47:09.286Z,4.30
2019-03-03T23:49:39.214Z,4.50
2019-03-03T23:52:08.704Z,4.27
2019-03-03T23:54:38.110Z,4.27
2019-03-03T23:57:07.573Z,4.03
2019-03-03T23:59:37.420Z,4.67
